sensor_id;sensor_type;location;lat;lon;timestamp;pressure;altitude;pressure_sealevel;temperature;humidity
7662;BME280;30314;48.184;11.510;2022-08-01T00:01:40;95850.97;;;19.37;80.50
7662;BME280;30314;48.184;11.510;2022-08-01T00:04:08;95886.03;;;19.64;78.92
7662;BME280;30314;48.184;11.510;2022-08-01T00:06:36;95837.84;;;19.32;77.34
7662;BME280;30314;48.184;11.510;2022-08-01T00:09:28;95920.91;;;19.96;78.36
7662;BME280;30314;48.184;11.510;2022-08-01T00:11:56;95924.50;;;19.88;78.86
7662;BME280;30314;48.184;11.510;2022-08-01T00:14:25;95874.66;;;19.51;79.67
7662;BME280;30314;48.184;11.510;2022-08-01T00:16:59;95893.31;;;19.63;80.73
7662;BME280;30314;48.184;11.510;2022-08-01T00:19:33;95899.53;;;19.67;80.47
7662;BME280;30314;48.184;11.510;2022-08-01T00:22:01;95852.09;;;19.36;82.03
7662;BME280;30314;48.184;11.510;2022-08-01T00:24:30;95862.03;;;19.35;82.84
7662;BME280;30314;48.184;11.510;2022-08-01T00:26:58;95840.38;;;19.24;83.36
7662;BME280;30314;48.184;11.510;2022-08-01T00:29:25;95927.66;;;19.74;81.30
7662;BME280;30314;48.184;11.510;2022-08-01T00:32:15;95936.22;;;19.79;82.40
7662;BME280;30314;48.184;11.510;2022-08-01T00:34:43;95893.84;;;19.53;81.73
7662;BME280;30314;48.184;11.510;2022-08-01T00:37:10;95891.06;;;19.49;80.98
7662;BME280;30314;48.184;11.510;2022-08-01T00:39:41;95899.91;;;19.50;81.41
7662;BME280;30314;48.184;11.510;2022-08-01T00:42:10;95859.56;;;19.26;80.48
7662;BME280;30314;48.184;11.510;2022-08-01T00:44:38;95875.25;;;19.28;81.29
7662;BME280;30314;48.184;11.510;2022-08-01T00:47:07;95843.38;;;19.07;81.13
7662;BME280;30314;48.184;11.510;2022-08-01T00:49:44;95925.59;;;19.67;81.18
7662;BME280;30314;48.184;11.510;2022-08-01T00:52:12;95863.50;;;19.16;81.49
7662;BME280;30314;48.184;11.510;2022-08-01T00:54:40;95928.19;;;19.63;81.33
7662;BME280;30314;48.184;11.510;2022-08-01T00:57:08;95851.59;;;19.14;82.65
7662;BME280;30314;48.184;11.510;2022-08-01T00:59:36;95927.66;;;19.57;81.14
7662;BME280;30314;48.184;11.510;2022-08-01T01:02:05;95907.53;;;19.48;80.90
7662;BME280;30314;48.184;11.510;2022-08-01T01:04:41;95827.41;;;18.82;81.21
7662;BME280;30314;48.184;11.510;2022-08-01T01:07:16;95791.47;;;18.51;82.80
7662;BME280;30314;48.184;11.510;2022-08-01T01:09:52;95835.53;;;18.69;81.13
7662;BME280;30314;48.184;11.510;2022-08-01T01:12:29;95898.00;;;19.18;80.29
7662;BME280;30314;48.184;11.510;2022-08-01T01:15:07;95862.16;;;18.94;81.54
7662;BME280;30314;48.184;11.510;2022-08-01T01:17:39;95872.03;;;18.90;80.74
7662;BME280;30314;48.184;11.510;2022-08-01T01:20:17;95868.91;;;18.88;79.01
7662;BME280;30314;48.184;11.510;2022-08-01T01:22:59;95903.09;;;19.07;79.46
7662;BME280;30314;48.184;11.510;2022-08-01T01:29:38;95913.47;;;19.09;80.95
7662;BME280;30314;48.184;11.510;2022-08-01T01:32:30;95874.88;;;18.81;81.80
7662;BME280;30314;48.184;11.510;2022-08-01T01:35:02;95935.94;;;19.20;81.46
7662;BME280;30314;48.184;11.510;2022-08-01T01:37:33;95855.72;;;18.51;82.62
7662;BME280;30314;48.184;11.510;2022-08-01T01:40:02;95928.94;;;18.99;83.20
7662;BME280;30314;48.184;11.510;2022-08-01T01:42:32;95902.25;;;18.74;83.51
7662;BME280;30314;48.184;11.510;2022-08-01T01:45:04;95915.38;;;18.80;83.33
7662;BME280;30314;48.184;11.510;2022-08-01T01:47:33;95906.53;;;18.63;82.10
7662;BME280;30314;48.184;11.510;2022-08-01T01:50:03;95918.63;;;18.73;83.69
7662;BME280;30314;48.184;11.510;2022-08-01T01:52:33;95866.06;;;18.24;85.74
7662;BME280;30314;48.184;11.510;2022-08-01T01:55:06;95880.88;;;18.34;84.39
7662;BME280;30314;48.184;11.510;2022-08-01T01:57:36;95927.94;;;18.63;85.05
7662;BME280;30314;48.184;11.510;2022-08-01T02:00:07;95911.06;;;18.47;85.84
7662;BME280;30314;48.184;11.510;2022-08-01T02:02:36;95872.75;;;18.17;84.43
7662;BME280;30314;48.184;11.510;2022-08-01T02:05:06;95914.84;;;18.45;85.13
7662;BME280;30314;48.184;11.510;2022-08-01T02:07:35;95948.69;;;18.66;85.42
7662;BME280;30314;48.184;11.510;2022-08-01T02:10:05;95894.94;;;18.30;84.94
7662;BME280;30314;48.184;11.510;2022-08-01T02:12:36;95943.13;;;18.59;85.81
7662;BME280;30314;48.184;11.510;2022-08-01T02:15:08;95913.09;;;18.37;84.70
7662;BME280;30314;48.184;11.510;2022-08-01T02:17:39;95873.16;;;18.03;85.77
7662;BME280;30314;48.184;11.510;2022-08-01T02:20:10;95918.75;;;18.36;85.18
7662;BME280;30314;48.184;11.510;2022-08-01T02:22:41;95945.13;;;18.62;84.63
7662;BME280;30314;48.184;11.510;2022-08-01T02:25:12;95942.25;;;18.55;84.77
7662;BME280;30314;48.184;11.510;2022-08-01T02:27:49;95912.09;;;18.29;85.04
7662;BME280;30314;48.184;11.510;2022-08-01T02:30:20;95961.22;;;18.50;86.67
7662;BME280;30314;48.184;11.510;2022-08-01T02:32:51;95933.72;;;18.24;84.16
7662;BME280;30314;48.184;11.510;2022-08-01T02:35:25;95928.72;;;18.23;85.55
7662;BME280;30314;48.184;11.510;2022-08-01T02:37:57;95937.50;;;18.36;84.35
7662;BME280;30314;48.184;11.510;2022-08-01T02:40:27;95842.06;;;17.74;83.16
7662;BME280;30314;48.184;11.510;2022-08-01T02:42:56;95966.16;;;18.48;83.29
7662;BME280;30314;48.184;11.510;2022-08-01T02:45:28;95815.72;;;17.47;82.35
7662;BME280;30314;48.184;11.510;2022-08-01T02:48:00;95814.63;;;17.49;83.47
7662;BME280;30314;48.184;11.510;2022-08-01T02:50:29;95950.53;;;18.50;83.42
7662;BME280;30314;48.184;11.510;2022-08-01T02:52:59;95917.88;;;18.31;84.10
7662;BME280;30314;48.184;11.510;2022-08-01T02:55:29;95880.59;;;17.98;83.77
7662;BME280;30314;48.184;11.510;2022-08-01T02:57:59;95918.25;;;18.17;82.73
7662;BME280;30314;48.184;11.510;2022-08-01T03:00:30;95779.66;;;17.41;82.60
7662;BME280;30314;48.184;11.510;2022-08-01T03:02:59;95959.00;;;18.52;82.26
7662;BME280;30314;48.184;11.510;2022-08-01T03:05:30;95826.50;;;17.51;81.99
7662;BME280;30314;48.184;11.510;2022-08-01T03:07:59;95862.81;;;17.65;81.66
7662;BME280;30314;48.184;11.510;2022-08-01T03:10:30;95919.03;;;18.18;81.14
7662;BME280;30314;48.184;11.510;2022-08-01T03:13:00;95938.75;;;18.26;82.73
7662;BME280;30314;48.184;11.510;2022-08-01T03:15:35;95887.94;;;18.01;82.72
7662;BME280;30314;48.184;11.510;2022-08-01T03:18:05;95955.47;;;18.35;84.02
7662;BME280;30314;48.184;11.510;2022-08-01T03:20:34;95952.00;;;18.35;83.24
7662;BME280;30314;48.184;11.510;2022-08-01T03:23:04;95953.00;;;18.30;83.59
7662;BME280;30314;48.184;11.510;2022-08-01T03:25:35;95971.50;;;18.48;82.50
7662;BME280;30314;48.184;11.510;2022-08-01T03:28:08;95970.28;;;18.45;82.60
7662;BME280;30314;48.184;11.510;2022-08-01T03:30:38;95912.13;;;17.92;82.84
7662;BME280;30314;48.184;11.510;2022-08-01T03:33:07;95876.63;;;17.79;83.25
7662;BME280;30314;48.184;11.510;2022-08-01T03:35:46;95961.59;;;18.23;82.43
7662;BME280;30314;48.184;11.510;2022-08-01T03:38:18;95969.84;;;18.30;82.80
7662;BME280;30314;48.184;11.510;2022-08-01T03:40:49;95843.00;;;17.41;81.71
7662;BME280;30314;48.184;11.510;2022-08-01T03:43:26;95839.00;;;17.22;82.73
7662;BME280;30314;48.184;11.510;2022-08-01T03:46:00;95972.88;;;18.16;83.07
7662;BME280;30314;48.184;11.510;2022-08-01T03:48:31;95968.09;;;18.10;83.33
7662;BME280;30314;48.184;11.510;2022-08-01T03:51:01;95947.25;;;18.03;83.43
7662;BME280;30314;48.184;11.510;2022-08-01T03:53:30;95968.56;;;18.12;82.63
7662;BME280;30314;48.184;11.510;2022-08-01T03:56:00;95926.53;;;17.75;83.37
7662;BME280;30314;48.184;11.510;2022-08-01T03:58:29;95879.88;;;17.35;82.98
7662;BME280;30314;48.184;11.510;2022-08-01T04:00:59;95881.97;;;17.42;83.84
7662;BME280;30314;48.184;11.510;2022-08-01T04:03:27;95945.03;;;17.80;83.09
7662;BME280;30314;48.184;11.510;2022-08-01T04:05:56;95960.59;;;17.90;83.13
7662;BME280;30314;48.184;11.510;2022-08-01T04:08:34;95902.47;;;17.50;82.95
7662;BME280;30314;48.184;11.510;2022-08-01T04:11:02;96000.09;;;18.19;82.42
7662;BME280;30314;48.184;11.510;2022-08-01T04:13:30;95976.88;;;17.98;82.87
7662;BME280;30314;48.184;11.510;2022-08-01T04:16:04;96011.00;;;18.13;83.61
7662;BME280;30314;48.184;11.510;2022-08-01T04:18:32;95963.94;;;17.75;83.95
7662;BME280;30314;48.184;11.510;2022-08-01T04:21:00;95979.31;;;17.90;83.95
7662;BME280;30314;48.184;11.510;2022-08-01T04:23:30;95986.25;;;17.92;83.19
7662;BME280;30314;48.184;11.510;2022-08-01T04:25:59;96023.94;;;18.24;82.49
7662;BME280;30314;48.184;11.510;2022-08-01T04:28:31;95944.56;;;17.53;82.14
7662;BME280;30314;48.184;11.510;2022-08-01T04:31:06;96021.25;;;18.24;82.41
7662;BME280;30314;48.184;11.510;2022-08-01T04:33:37;96013.47;;;18.06;84.68
7662;BME280;30314;48.184;11.510;2022-08-01T04:36:06;95994.38;;;17.95;85.21
7662;BME280;30314;48.184;11.510;2022-08-01T04:38:37;96004.34;;;18.07;85.26
7662;BME280;30314;48.184;11.510;2022-08-01T04:41:08;96000.28;;;18.01;84.15
7662;BME280;30314;48.184;11.510;2022-08-01T04:43:37;96004.66;;;18.06;84.37
7662;BME280;30314;48.184;11.510;2022-08-01T04:46:07;96030.28;;;18.31;84.12
7662;BME280;30314;48.184;11.510;2022-08-01T04:48:37;96036.31;;;18.41;82.40
7662;BME280;30314;48.184;11.510;2022-08-01T04:51:11;96034.84;;;18.43;83.15
7662;BME280;30314;48.184;11.510;2022-08-01T04:53:41;96036.88;;;18.47;83.85
7662;BME280;30314;48.184;11.510;2022-08-01T04:56:09;95959.16;;;17.81;83.84
7662;BME280;30314;48.184;11.510;2022-08-01T04:58:39;96037.75;;;18.51;83.67
7662;BME280;30314;48.184;11.510;2022-08-01T05:01:09;95955.03;;;17.96;84.07
7662;BME280;30314;48.184;11.510;2022-08-01T05:03:38;96040.84;;;18.53;83.57
7662;BME280;30314;48.184;11.510;2022-08-01T05:06:06;95977.66;;;18.11;82.68
7662;BME280;30314;48.184;11.510;2022-08-01T05:08:34;95942.56;;;17.87;82.46
7662;BME280;30314;48.184;11.510;2022-08-01T05:11:02;96045.88;;;18.54;84.05
7662;BME280;30314;48.184;11.510;2022-08-01T05:13:30;96046.50;;;18.64;84.17
7662;BME280;30314;48.184;11.510;2022-08-01T05:15:58;96020.69;;;18.43;82.56
7662;BME280;30314;48.184;11.510;2022-08-01T05:18:27;96021.81;;;18.42;84.34
7662;BME280;30314;48.184;11.510;2022-08-01T05:20:56;96017.34;;;18.46;83.00
7662;BME280;30314;48.184;11.510;2022-08-01T05:23:23;96033.25;;;18.55;83.25
7662;BME280;30314;48.184;11.510;2022-08-01T05:26:09;96049.16;;;18.76;83.23
7662;BME280;30314;48.184;11.510;2022-08-01T05:28:40;96048.50;;;18.79;82.98
7662;BME280;30314;48.184;11.510;2022-08-01T05:31:08;96053.38;;;18.90;81.81
7662;BME280;30314;48.184;11.510;2022-08-01T05:33:37;96056.72;;;18.99;80.36
7662;BME280;30314;48.184;11.510;2022-08-01T05:36:04;96035.41;;;18.90;80.89
7662;BME280;30314;48.184;11.510;2022-08-01T05:38:32;96051.50;;;18.90;81.43
7662;BME280;30314;48.184;11.510;2022-08-01T05:41:00;96065.06;;;19.10;79.59
7662;BME280;30314;48.184;11.510;2022-08-01T05:43:28;96009.25;;;18.71;80.00
7662;BME280;30314;48.184;11.510;2022-08-01T05:45:56;96048.38;;;19.00;79.54
7662;BME280;30314;48.184;11.510;2022-08-01T05:48:25;96057.03;;;19.10;78.69
7662;BME280;30314;48.184;11.510;2022-08-01T05:50:54;96070.84;;;19.24;78.01
7662;BME280;30314;48.184;11.510;2022-08-01T05:53:24;96046.31;;;19.10;78.22
7662;BME280;30314;48.184;11.510;2022-08-01T05:55:52;96072.59;;;19.33;78.77
7662;BME280;30314;48.184;11.510;2022-08-01T05:58:20;96031.72;;;19.07;79.09
7662;BME280;30314;48.184;11.510;2022-08-01T06:00:47;96074.09;;;19.46;77.03
7662;BME280;30314;48.184;11.510;2022-08-01T06:03:15;96034.09;;;19.25;77.61
7662;BME280;30314;48.184;11.510;2022-08-01T06:05:43;96047.09;;;19.39;76.10
7662;BME280;30314;48.184;11.510;2022-08-01T06:08:12;95994.28;;;19.11;74.99
7662;BME280;30314;48.184;11.510;2022-08-01T06:10:39;96021.13;;;19.27;76.26
7662;BME280;30314;48.184;11.510;2022-08-01T06:13:07;95978.50;;;19.22;75.75
7662;BME280;30314;48.184;11.510;2022-08-01T06:15:35;95971.28;;;19.10;75.73
7662;BME280;30314;48.184;11.510;2022-08-01T06:18:05;96072.66;;;19.81;75.41
7662;BME280;30314;48.184;11.510;2022-08-01T06:20:32;96051.72;;;19.70;75.87
7662;BME280;30314;48.184;11.510;2022-08-01T06:23:00;96055.19;;;19.87;74.93
7662;BME280;30314;48.184;11.510;2022-08-01T06:25:52;96092.63;;;20.12;74.54
7662;BME280;30314;48.184;11.510;2022-08-01T06:28:20;96086.09;;;20.29;70.31
7662;BME280;30314;48.184;11.510;2022-08-01T06:30:48;96084.56;;;20.28;70.60
7662;BME280;30314;48.184;11.510;2022-08-01T06:33:15;96069.00;;;20.18;70.84
7662;BME280;30314;48.184;11.510;2022-08-01T06:35:43;96051.44;;;20.04;70.73
7662;BME280;30314;48.184;11.510;2022-08-01T06:38:11;96093.56;;;20.36;70.89
7662;BME280;30314;48.184;11.510;2022-08-01T06:40:38;96075.38;;;20.29;69.90
7662;BME280;30314;48.184;11.510;2022-08-01T06:43:07;96082.13;;;20.39;69.44
7662;BME280;30314;48.184;11.510;2022-08-01T06:45:38;96092.84;;;20.55;69.52
7662;BME280;30314;48.184;11.510;2022-08-01T06:48:05;95980.19;;;19.75;70.60
7662;BME280;30314;48.184;11.510;2022-08-01T06:50:33;96113.66;;;20.58;69.76
7662;BME280;30314;48.184;11.510;2022-08-01T06:53:03;96091.44;;;20.61;69.91
7662;BME280;30314;48.184;11.510;2022-08-01T06:55:31;96098.47;;;20.66;69.04
7662;BME280;30314;48.184;11.510;2022-08-01T06:57:58;96082.09;;;20.55;69.76
7662;BME280;30314;48.184;11.510;2022-08-01T07:00:27;96089.00;;;20.72;70.45
7662;BME280;30314;48.184;11.510;2022-08-01T07:02:56;96099.13;;;20.79;69.76
7662;BME280;30314;48.184;11.510;2022-08-01T07:05:25;96066.56;;;20.64;68.72
7662;BME280;30314;48.184;11.510;2022-08-01T07:07:53;96085.59;;;20.91;67.10
7662;BME280;30314;48.184;11.510;2022-08-01T07:10:21;96017.34;;;20.40;67.82
7662;BME280;30314;48.184;11.510;2022-08-01T07:12:49;96032.91;;;20.51;68.10
7662;BME280;30314;48.184;11.510;2022-08-01T07:15:17;96087.66;;;20.98;69.20
7662;BME280;30314;48.184;11.510;2022-08-01T07:17:49;96091.69;;;21.08;68.01
7662;BME280;30314;48.184;11.510;2022-08-01T07:20:18;96080.38;;;20.98;69.88
7662;BME280;30314;48.184;11.510;2022-08-01T07:22:47;96096.56;;;21.22;67.10
7662;BME280;30314;48.184;11.510;2022-08-01T07:25:16;96037.50;;;20.86;67.44
7662;BME280;30314;48.184;11.510;2022-08-01T07:27:43;96087.31;;;21.19;67.01
7662;BME280;30314;48.184;11.510;2022-08-01T07:30:12;96009.63;;;20.75;66.36
7662;BME280;30314;48.184;11.510;2022-08-01T07:32:40;96086.81;;;21.33;66.15
7662;BME280;30314;48.184;11.510;2022-08-01T07:35:10;95976.25;;;20.76;66.68
7662;BME280;30314;48.184;11.510;2022-08-01T07:37:37;96087.44;;;21.46;67.38
7662;BME280;30314;48.184;11.510;2022-08-01T07:40:15;96081.47;;;21.57;66.55
7662;BME280;30314;48.184;11.510;2022-08-01T07:42:42;96092.72;;;21.62;66.48
7662;BME280;30314;48.184;11.510;2022-08-01T07:45:11;96094.38;;;21.67;65.54
7662;BME280;30314;48.184;11.510;2022-08-01T07:47:39;96062.50;;;21.49;65.67
7662;BME280;30314;48.184;11.510;2022-08-01T07:50:07;96059.13;;;21.52;66.17
7662;BME280;30314;48.184;11.510;2022-08-01T07:52:36;96085.72;;;21.77;64.93
7662;BME280;30314;48.184;11.510;2022-08-01T07:55:05;96087.38;;;21.86;65.49
7662;BME280;30314;48.184;11.510;2022-08-01T07:57:33;96046.38;;;21.69;65.05
7662;BME280;30314;48.184;11.510;2022-08-01T08:00:03;96081.28;;;22.12;64.71
7662;BME280;30314;48.184;11.510;2022-08-01T08:02:31;96085.59;;;22.17;67.16
7662;BME280;30314;48.184;11.510;2022-08-01T08:04:58;96084.97;;;22.27;64.26
7662;BME280;30314;48.184;11.510;2022-08-01T08:07:26;96000.88;;;21.83;64.51
7662;BME280;30314;48.184;11.510;2022-08-01T08:09:55;96085.00;;;22.50;62.75
7662;BME280;30314;48.184;11.510;2022-08-01T08:12:23;96081.66;;;22.61;63.02
7662;BME280;30314;48.184;11.510;2022-08-01T08:14:55;96051.66;;;22.62;62.24
7662;BME280;30314;48.184;11.510;2022-08-01T08:17:25;96080.00;;;22.79;62.52
7662;BME280;30314;48.184;11.510;2022-08-01T08:19:53;96091.50;;;23.07;62.18
7662;BME280;30314;48.184;11.510;2022-08-01T08:22:20;96071.88;;;23.41;59.81
7662;BME280;30314;48.184;11.510;2022-08-01T08:24:48;96070.38;;;23.85;57.36
7662;BME280;30314;48.184;11.510;2022-08-01T08:27:17;96074.19;;;23.80;57.25
7662;BME280;30314;48.184;11.510;2022-08-01T08:29:45;96039.06;;;23.35;57.97
7662;BME280;30314;48.184;11.510;2022-08-01T08:32:13;96038.31;;;23.34;58.69
7662;BME280;30314;48.184;11.510;2022-08-01T08:34:41;96073.31;;;23.69;57.04
7662;BME280;30314;48.184;11.510;2022-08-01T08:37:09;96062.38;;;23.54;58.98
7662;BME280;30314;48.184;11.510;2022-08-01T08:39:36;96014.75;;;22.97;61.19
7662;BME280;30314;48.184;11.510;2022-08-01T08:42:08;96066.81;;;23.35;61.11
7662;BME280;30314;48.184;11.510;2022-08-01T08:44:38;96064.25;;;23.16;59.46
7662;BME280;30314;48.184;11.510;2022-08-01T08:47:11;96074.28;;;23.15;60.54
7662;BME280;30314;48.184;11.510;2022-08-01T08:49:46;96075.25;;;23.00;62.47
7662;BME280;30314;48.184;11.510;2022-08-01T08:52:15;96067.16;;;23.00;61.76
7662;BME280;30314;48.184;11.510;2022-08-01T08:54:45;96064.00;;;22.94;62.85
7662;BME280;30314;48.184;11.510;2022-08-01T08:57:14;96033.91;;;22.88;62.60
7662;BME280;30314;48.184;11.510;2022-08-01T08:59:44;96066.31;;;22.95;61.17
7662;BME280;30314;48.184;11.510;2022-08-01T09:02:12;96066.25;;;22.88;61.89
7662;BME280;30314;48.184;11.510;2022-08-01T09:04:40;96060.16;;;22.95;64.45
7662;BME280;30314;48.184;11.510;2022-08-01T09:07:08;96065.72;;;23.09;62.07
7662;BME280;30314;48.184;11.510;2022-08-01T09:09:38;96058.50;;;23.17;61.11
7662;BME280;30314;48.184;11.510;2022-08-01T09:12:07;96071.84;;;23.06;61.16
7662;BME280;30314;48.184;11.510;2022-08-01T09:14:45;96026.44;;;22.78;61.71
7662;BME280;30314;48.184;11.510;2022-08-01T09:17:14;96033.84;;;22.85;60.18
7662;BME280;30314;48.184;11.510;2022-08-01T09:19:44;95997.81;;;22.66;60.95
7662;BME280;30314;48.184;11.510;2022-08-01T09:22:15;96076.22;;;23.18;58.75
7662;BME280;30314;48.184;11.510;2022-08-01T09:24:58;96070.44;;;23.16;59.35
7662;BME280;30314;48.184;11.510;2022-08-01T09:27:26;96064.94;;;23.09;62.37
7662;BME280;30314;48.184;11.510;2022-08-01T09:30:07;96061.19;;;23.17;61.64
7662;BME280;30314;48.184;11.510;2022-08-01T09:32:43;96065.41;;;23.49;60.93
7662;BME280;30314;48.184;11.510;2022-08-01T09:35:24;96049.19;;;23.45;60.04
7662;BME280;30314;48.184;11.510;2022-08-01T09:38:12;96070.81;;;23.49;61.80
7662;BME280;30314;48.184;11.510;2022-08-01T09:40:49;96057.28;;;23.45;59.31
7662;BME280;30314;48.184;11.510;2022-08-01T09:43:18;96068.22;;;23.56;58.51
7662;BME280;30314;48.184;11.510;2022-08-01T09:45:47;96056.25;;;23.57;60.27
7662;BME280;30314;48.184;11.510;2022-08-01T09:48:19;96042.25;;;23.44;59.54
7662;BME280;30314;48.184;11.510;2022-08-01T09:50:54;95966.81;;;23.17;57.59
7662;BME280;30314;48.184;11.510;2022-08-01T09:53:45;96039.63;;;23.51;59.07
7662;BME280;30314;48.184;11.510;2022-08-01T09:56:20;96060.41;;;23.89;57.02
7662;BME280;30314;48.184;11.510;2022-08-01T09:58:49;96052.72;;;23.91;58.12
7662;BME280;30314;48.184;11.510;2022-08-01T10:01:27;96055.00;;;23.89;57.75
7662;BME280;30314;48.184;11.510;2022-08-01T10:04:05;96061.13;;;23.86;57.83
7662;BME280;30314;48.184;11.510;2022-08-01T10:06:36;96056.59;;;23.97;56.82
7662;BME280;30314;48.184;11.510;2022-08-01T10:09:04;96044.22;;;23.89;56.29
7662;BME280;30314;48.184;11.510;2022-08-01T10:11:32;96044.28;;;24.00;56.30
7662;BME280;30314;48.184;11.510;2022-08-01T10:14:05;96049.69;;;24.00;57.77
7662;BME280;30314;48.184;11.510;2022-08-01T10:16:35;96048.03;;;23.88;57.18
7662;BME280;30314;48.184;11.510;2022-08-01T10:19:06;96045.81;;;23.97;56.36
7662;BME280;30314;48.184;11.510;2022-08-01T10:21:41;96031.53;;;23.97;55.32
7662;BME280;30314;48.184;11.510;2022-08-01T10:24:29;96024.31;;;24.04;57.47
7662;BME280;30314;48.184;11.510;2022-08-01T10:27:02;96041.50;;;24.38;57.22
7662;BME280;30314;48.184;11.510;2022-08-01T10:29:38;96046.25;;;24.55;55.33
7662;BME280;30314;48.184;11.510;2022-08-01T10:32:26;96017.16;;;24.30;54.99
7662;BME280;30314;48.184;11.510;2022-08-01T10:34:55;96042.81;;;24.66;52.63
7662;BME280;30314;48.184;11.510;2022-08-01T10:37:24;96034.03;;;24.80;51.14
7662;BME280;30314;48.184;11.510;2022-08-01T10:39:53;96051.47;;;24.89;51.95
7662;BME280;30314;48.184;11.510;2022-08-01T10:42:42;96037.97;;;24.97;50.62
7662;BME280;30314;48.184;11.510;2022-08-01T10:45:14;96039.13;;;24.99;50.79
7662;BME280;30314;48.184;11.510;2022-08-01T10:47:50;96008.69;;;25.17;51.79
7662;BME280;30314;48.184;11.510;2022-08-01T10:50:26;95990.94;;;25.41;49.97
7662;BME280;30314;48.184;11.510;2022-08-01T10:53:10;95995.19;;;25.35;49.42
7662;BME280;30314;48.184;11.510;2022-08-01T10:55:51;95993.25;;;25.46;48.78
7662;BME280;30314;48.184;11.510;2022-08-01T10:58:22;96025.03;;;25.71;51.24
7662;BME280;30314;48.184;11.510;2022-08-01T11:01:18;96021.97;;;25.95;48.85
7662;BME280;30314;48.184;11.510;2022-08-01T11:04:01;96021.16;;;26.05;46.15
7662;BME280;30314;48.184;11.510;2022-08-01T11:06:39;96015.00;;;26.04;47.44
7662;BME280;30314;48.184;11.510;2022-08-01T11:09:20;95993.31;;;25.97;51.53
7662;BME280;30314;48.184;11.510;2022-08-01T11:12:08;96005.69;;;26.27;49.11
7662;BME280;30314;48.184;11.510;2022-08-01T11:17:58;96009.88;;;26.57;45.50
7662;BME280;30314;48.184;11.510;2022-08-01T11:20:30;95989.41;;;26.31;46.18
7662;BME280;30314;48.184;11.510;2022-08-01T11:23:24;95997.16;;;26.25;46.89
7662;BME280;30314;48.184;11.510;2022-08-01T11:26:20;96004.13;;;26.15;45.81
7662;BME280;30314;48.184;11.510;2022-08-01T11:29:16;95999.88;;;26.11;48.01
7662;BME280;30314;48.184;11.510;2022-08-01T11:31:48;95998.75;;;26.23;47.26
7662;BME280;30314;48.184;11.510;2022-08-01T11:34:16;95995.63;;;25.95;45.42
7662;BME280;30314;48.184;11.510;2022-08-01T11:36:46;95989.41;;;26.13;45.82
7662;BME280;30314;48.184;11.510;2022-08-01T11:39:24;95988.25;;;26.43;44.94
7662;BME280;30314;48.184;11.510;2022-08-01T11:41:52;95880.34;;;26.01;44.45
7662;BME280;30314;48.184;11.510;2022-08-01T11:44:25;95974.53;;;26.83;44.13
7662;BME280;30314;48.184;11.510;2022-08-01T11:47:02;95973.31;;;27.02;44.21
7662;BME280;30314;48.184;11.510;2022-08-01T11:49:46;95949.72;;;26.95;42.75
7662;BME280;30314;48.184;11.510;2022-08-01T11:52:22;95918.00;;;26.81;43.58
7662;BME280;30314;48.184;11.510;2022-08-01T11:54:52;95955.94;;;26.85;43.18
7662;BME280;30314;48.184;11.510;2022-08-01T11:57:21;95980.81;;;26.69;44.26
7662;BME280;30314;48.184;11.510;2022-08-01T12:00:02;95951.16;;;26.22;43.62
7662;BME280;30314;48.184;11.510;2022-08-01T12:02:40;95987.09;;;26.37;43.68
7662;BME280;30314;48.184;11.510;2022-08-01T12:05:12;95983.22;;;26.34;44.27
7662;BME280;30314;48.184;11.510;2022-08-01T12:07:43;95939.91;;;26.09;47.18
7662;BME280;30314;48.184;11.510;2022-08-01T12:10:12;95967.00;;;26.27;43.36
7662;BME280;30314;48.184;11.510;2022-08-01T12:12:43;95909.41;;;25.61;44.89
7662;BME280;30314;48.184;11.510;2022-08-01T12:15:12;95972.00;;;26.14;45.92
7662;BME280;30314;48.184;11.510;2022-08-01T12:17:41;95961.53;;;26.38;42.64
7662;BME280;30314;48.184;11.510;2022-08-01T12:20:26;95945.31;;;26.23;44.26
7662;BME280;30314;48.184;11.510;2022-08-01T12:23:00;95961.03;;;26.72;42.69
7662;BME280;30314;48.184;11.510;2022-08-01T12:25:28;95938.72;;;26.35;43.18
7662;BME280;30314;48.184;11.510;2022-08-01T12:27:59;95947.28;;;26.04;43.66
7662;BME280;30314;48.184;11.510;2022-08-01T12:30:28;95869.19;;;25.38;43.83
7662;BME280;30314;48.184;11.510;2022-08-01T12:32:57;95912.13;;;25.54;45.49
7662;BME280;30314;48.184;11.510;2022-08-01T12:35:27;95947.28;;;25.94;46.36
7662;BME280;30314;48.184;11.510;2022-08-01T12:37:59;95963.50;;;26.12;45.65
7662;BME280;30314;48.184;11.510;2022-08-01T12:40:29;95949.56;;;26.28;44.89
7662;BME280;30314;48.184;11.510;2022-08-01T12:42:59;95940.63;;;26.42;43.79
7662;BME280;30314;48.184;11.510;2022-08-01T12:45:30;95893.47;;;26.21;42.40
7662;BME280;30314;48.184;11.510;2022-08-01T12:47:58;95951.81;;;26.55;44.40
7662;BME280;30314;48.184;11.510;2022-08-01T12:50:29;95928.97;;;26.52;41.43
7662;BME280;30314;48.184;11.510;2022-08-01T12:52:58;95925.81;;;26.65;41.23
7662;BME280;30314;48.184;11.510;2022-08-01T12:55:27;95942.84;;;26.69;41.84
7662;BME280;30314;48.184;11.510;2022-08-01T12:58:05;95928.63;;;26.43;41.69
7662;BME280;30314;48.184;11.510;2022-08-01T13:00:43;95939.91;;;26.23;40.82
7662;BME280;30314;48.184;11.510;2022-08-01T13:03:13;95933.72;;;25.94;42.34
7662;BME280;30314;48.184;11.510;2022-08-01T13:05:43;95933.00;;;25.75;42.70
7662;BME280;30314;48.184;11.510;2022-08-01T13:08:14;95948.47;;;25.67;43.98
7662;BME280;30314;48.184;11.510;2022-08-01T13:10:42;95900.47;;;25.20;45.17
7662;BME280;30314;48.184;11.510;2022-08-01T13:13:11;95925.59;;;25.46;44.86
7662;BME280;30314;48.184;11.510;2022-08-01T13:16:03;95962.34;;;25.47;44.90
7662;BME280;30314;48.184;11.510;2022-08-01T13:18:33;95949.19;;;25.24;45.86
7662;BME280;30314;48.184;11.510;2022-08-01T13:21:09;95928.69;;;25.09;46.14
7662;BME280;30314;48.184;11.510;2022-08-01T13:23:40;95958.81;;;25.11;46.60
7662;BME280;30314;48.184;11.510;2022-08-01T13:26:39;95860.84;;;24.29;48.00
7662;BME280;30314;48.184;11.510;2022-08-01T13:29:08;95964.53;;;24.84;50.77
7662;BME280;30314;48.184;11.510;2022-08-01T13:31:37;95878.53;;;24.15;52.87